createdAt,value
2018-03-08T00:00:52.089Z,12.50
2018-03-08T00:03:20.097Z,12.52
2018-03-08T00:05:47.841Z,13.20
2018-03-08T00:08:15.275Z,11.37
2018-03-08T00:10:42.698Z,11.03
2018-03-08T00:13:10.150Z,11.40
2018-03-08T00:15:37.776Z,11.20
2018-03-08T00:18:05.178Z,11.13
2018-03-08T00:20:32.573Z,11.77
2018-03-08T00:23:00.046Z,12.13
2018-03-08T00:25:27.482Z,14.73
2018-03-08T00:27:54.869Z,15.37
2018-03-08T00:30:22.348Z,15.20
2018-03-08T00:32:49.856Z,13.53
2018-03-08T00:35:17.373Z,15.55
2018-03-08T00:37:44.847Z,16.47
2018-03-08T00:40:12.281Z,12.48
2018-03-08T00:42:39.739Z,13.67
2018-03-08T00:45:07.174Z,13.47
2018-03-08T00:47:35.076Z,15.47
2018-03-08T00:50:02.460Z,15.63
2018-03-08T00:52:29.913Z,14.67
2018-03-08T00:54:58.405Z,15.37
2018-03-08T00:57:25.944Z,14.85
2018-03-08T00:59:53.428Z,15.93
2018-03-08T01:02:20.935Z,13.07
2018-03-08T01:04:49.385Z,14.77
2018-03-08T01:07:16.844Z,14.57
2018-03-08T01:09:44.405Z,13.03
2018-03-08T01:12:12.303Z,13.60
2018-03-08T01:14:39.876Z,14.23
2018-03-08T01:17:10.424Z,14.73
2018-03-08T01:19:38.201Z,12.70
2018-03-08T01:22:05.627Z,14.47
2018-03-08T01:24:33.012Z,12.00
2018-03-08T01:27:00.464Z,14.13
2018-03-08T01:29:27.854Z,11.97
2018-03-08T01:34:28.410Z,13.10
2018-03-08T01:36:55.800Z,13.47
2018-03-08T01:39:23.208Z,11.47
2018-03-08T01:41:50.712Z,12.37
2018-03-08T01:44:18.092Z,11.77
2018-03-08T01:46:45.529Z,11.90
2018-03-08T01:49:12.956Z,13.10
2018-03-08T01:54:33.055Z,11.57
2018-03-08T01:57:00.440Z,13.23
2018-03-08T01:59:27.898Z,12.70
2018-03-08T02:01:55.275Z,12.20
2018-03-08T02:04:22.722Z,12.60
2018-03-08T02:06:50.188Z,13.37
2018-03-08T02:09:17.589Z,12.53
2018-03-08T02:11:45.030Z,13.10
2018-03-08T02:14:12.413Z,12.80
2018-03-08T02:16:39.821Z,11.80
2018-03-08T02:19:07.209Z,12.90
2018-03-08T02:21:34.613Z,14.03
2018-03-08T02:24:02.008Z,13.30
2018-03-08T02:26:29.401Z,12.53
2018-03-08T02:28:56.799Z,13.55
2018-03-08T02:31:24.357Z,14.23
2018-03-08T02:33:51.938Z,12.35
2018-03-08T02:36:19.865Z,11.75
2018-03-08T02:38:47.302Z,13.07
2018-03-08T02:41:14.954Z,12.25
2018-03-08T02:43:42.392Z,11.60
2018-03-08T02:46:09.798Z,12.88
2018-03-08T02:48:37.323Z,11.80
2018-03-08T02:51:04.710Z,13.90
2018-03-08T02:53:32.106Z,12.90
2018-03-08T02:55:59.509Z,12.80
2018-03-08T02:58:26.896Z,12.75
2018-03-08T03:00:54.290Z,12.63
2018-03-08T03:03:21.700Z,12.30
2018-03-08T03:05:49.951Z,13.33
2018-03-08T03:08:17.370Z,12.00
2018-03-08T03:10:44.834Z,12.87
2018-03-08T03:13:12.221Z,12.90
2018-03-08T03:15:39.602Z,11.70
2018-03-08T03:18:07.094Z,11.80
2018-03-08T03:20:34.491Z,12.80
2018-03-08T03:23:02.318Z,11.63
2018-03-08T03:25:30.133Z,10.23
2018-03-08T03:27:57.616Z,11.30
2018-03-08T03:30:25.007Z,12.97
2018-03-08T03:32:52.444Z,11.97
2018-03-08T03:35:20.259Z,12.80
2018-03-08T03:37:47.802Z,13.43
2018-03-08T03:40:15.209Z,11.50
2018-03-08T03:42:42.599Z,12.63
2018-03-08T03:45:10.001Z,11.83
2018-03-08T03:47:37.394Z,12.20
2018-03-08T03:50:04.792Z,13.03
2018-03-08T03:52:32.520Z,12.00
2018-03-08T03:54:59.914Z,12.65
2018-03-08T03:57:27.343Z,12.80
2018-03-08T03:59:54.735Z,12.10
2018-03-08T04:02:22.212Z,13.20
2018-03-08T04:04:51.032Z,13.33
2018-03-08T04:07:18.444Z,12.80
2018-03-08T04:09:45.855Z,12.70
2018-03-08T04:12:13.889Z,13.10
2018-03-08T04:14:41.388Z,11.53
2018-03-08T04:17:08.936Z,12.30
2018-03-08T04:19:36.357Z,13.90
2018-03-08T04:22:03.747Z,13.13
2018-03-08T04:24:31.136Z,16.90
2018-03-08T04:26:58.616Z,13.87
2018-03-08T04:29:26.016Z,16.50
2018-03-08T04:31:53.492Z,14.87
2018-03-08T04:34:21.126Z,15.13
2018-03-08T04:36:48.492Z,14.70
2018-03-08T04:39:15.884Z,16.60
2018-03-08T04:41:43.605Z,16.10
2018-03-08T04:44:10.988Z,15.63
2018-03-08T04:46:38.380Z,12.97
2018-03-08T04:49:05.801Z,15.67
2018-03-08T04:51:33.308Z,15.40
2018-03-08T04:54:00.822Z,15.20
2018-03-08T04:56:28.290Z,14.93
2018-03-08T04:58:56.888Z,14.77
2018-03-08T05:01:24.276Z,17.50
2018-03-08T05:03:51.705Z,14.97
2018-03-08T05:06:19.117Z,15.73
2018-03-08T05:08:46.565Z,13.55
2018-03-08T05:11:13.992Z,12.40
2018-03-08T05:13:41.830Z,13.27
2018-03-08T05:16:09.241Z,13.20
2018-03-08T05:18:36.655Z,11.73
2018-03-08T05:21:04.043Z,11.70
2018-03-08T05:23:31.448Z,11.17
2018-03-08T05:25:58.910Z,11.23
2018-03-08T05:28:26.297Z,12.80
2018-03-08T05:30:53.710Z,12.03
2018-03-08T05:33:21.685Z,11.40
2018-03-08T05:35:49.083Z,10.43
2018-03-08T05:38:16.493Z,9.80
2018-03-08T05:40:43.894Z,10.57
2018-03-08T05:43:11.427Z,10.30
2018-03-08T05:45:38.803Z,9.93
2018-03-08T05:48:06.490Z,9.70
2018-03-08T05:50:33.884Z,10.00
2018-03-08T05:53:01.301Z,10.57
2018-03-08T05:55:29.239Z,10.37
2018-03-08T05:57:56.616Z,10.75
2018-03-08T06:00:24.143Z,10.80
2018-03-08T06:02:51.509Z,11.23
2018-03-08T06:05:18.895Z,10.57
2018-03-08T06:07:46.273Z,10.80
2018-03-08T06:10:13.666Z,10.30
2018-03-08T06:12:41.041Z,9.80
2018-03-08T06:15:09.523Z,10.47
2018-03-08T06:17:37.020Z,10.60
2018-03-08T06:20:04.410Z,9.97
2018-03-08T06:22:31.801Z,10.80
2018-03-08T06:24:59.214Z,11.37
2018-03-08T06:27:26.608Z,10.13
2018-03-08T06:29:54.016Z,10.20
2018-03-08T06:32:21.449Z,10.30
2018-03-08T06:34:48.913Z,10.43
2018-03-08T06:37:16.355Z,10.90
2018-03-08T06:39:43.768Z,10.93
2018-03-08T06:42:11.204Z,11.27
2018-03-08T06:44:38.637Z,11.65
2018-03-08T06:47:06.073Z,12.20
2018-03-08T06:49:33.463Z,12.40
2018-03-08T06:52:00.877Z,9.47
2018-03-08T06:54:28.298Z,11.43
2018-03-08T06:56:55.785Z,9.93
2018-03-08T06:59:23.201Z,11.30
2018-03-08T07:01:51.149Z,11.07
2018-03-08T07:04:18.523Z,10.43
2018-03-08T07:06:46.834Z,9.73
2018-03-08T07:09:14.379Z,10.47
2018-03-08T07:11:41.811Z,9.87
2018-03-08T07:14:09.295Z,10.47
2018-03-08T07:16:36.706Z,10.03
2018-03-08T07:19:04.233Z,10.13
2018-03-08T07:21:31.601Z,8.80
2018-03-08T07:23:59.064Z,10.10
2018-03-08T07:26:26.502Z,9.30
2018-03-08T07:28:53.984Z,8.20
2018-03-08T07:31:21.369Z,7.90
2018-03-08T07:33:48.767Z,7.87
2018-03-08T07:36:16.151Z,6.90
2018-03-08T07:38:43.793Z,7.33
2018-03-08T07:41:11.221Z,7.60
2018-03-08T07:43:38.593Z,7.13
2018-03-08T07:46:05.998Z,7.93
2018-03-08T07:48:33.382Z,6.97
2018-03-08T07:51:00.786Z,6.20
2018-03-08T07:53:28.261Z,6.50
2018-03-08T07:55:56.083Z,7.82
2018-03-08T07:58:23.468Z,7.70
2018-03-08T08:00:51.449Z,6.75
2018-03-08T08:03:18.847Z,7.53
2018-03-08T08:05:58.348Z,7.50
2018-03-08T08:08:37.484Z,6.50
2018-03-08T08:11:04.870Z,6.90
2018-03-08T08:13:32.285Z,6.60
2018-03-08T08:15:59.677Z,7.03
2018-03-08T08:18:27.096Z,6.20
2018-03-08T08:20:54.497Z,6.57
2018-03-08T08:23:21.981Z,6.53
2018-03-08T08:25:49.452Z,6.62
2018-03-08T08:28:16.841Z,6.57
2018-03-08T08:30:44.301Z,5.80
2018-03-08T08:33:12.510Z,6.80
2018-03-08T08:35:39.902Z,5.90
2018-03-08T08:38:07.450Z,6.80
2018-03-08T08:40:34.902Z,6.60
2018-03-08T08:43:02.794Z,6.30
2018-03-08T08:45:30.188Z,6.07
2018-03-08T08:47:57.579Z,5.87
2018-03-08T08:50:24.983Z,6.30
2018-03-08T08:52:52.353Z,6.10
2018-03-08T08:55:19.743Z,6.70
2018-03-08T08:57:47.121Z,6.13
2018-03-08T09:00:14.565Z,6.90
2018-03-08T09:02:41.893Z,8.33
2018-03-08T09:05:09.398Z,6.10
2018-03-08T09:07:36.809Z,8.07
2018-03-08T09:10:04.363Z,6.12
2018-03-08T09:12:31.825Z,7.40
2018-03-08T09:14:59.869Z,5.60
2018-03-08T09:17:27.337Z,5.37
2018-03-08T09:19:54.714Z,6.63
2018-03-08T09:22:22.105Z,7.10
2018-03-08T09:24:49.492Z,5.70
2018-03-08T09:27:16.873Z,6.90
2018-03-08T09:29:44.266Z,5.53
2018-03-08T09:32:13.262Z,5.57
2018-03-08T09:34:40.633Z,5.27
2018-03-08T09:37:08.045Z,5.30
2018-03-08T09:39:35.445Z,6.65
2018-03-08T09:42:03.069Z,4.95
2018-03-08T09:44:30.431Z,5.30
2018-03-08T09:46:57.929Z,6.07
2018-03-08T09:49:25.313Z,5.90
2018-03-08T09:51:52.837Z,6.70
2018-03-08T09:54:20.229Z,6.03
2018-03-08T09:56:47.614Z,5.37
2018-03-08T09:59:15.048Z,5.63
2018-03-08T10:01:42.417Z,6.70
2018-03-08T10:04:09.839Z,7.40
2018-03-08T10:06:37.213Z,5.50
2018-03-08T10:09:04.657Z,5.07
2018-03-08T10:11:32.033Z,5.20
2018-03-08T10:13:59.613Z,4.97
2018-03-08T10:16:26.985Z,4.75
2018-03-08T10:18:54.573Z,8.00
2018-03-08T10:21:44.234Z,8.03
2018-03-08T10:23:50.896Z,4.37
2018-03-08T10:26:18.309Z,5.03
2018-03-08T10:28:45.809Z,4.87
2018-03-08T10:31:13.259Z,6.67
2018-03-08T10:33:40.627Z,5.27
2018-03-08T10:36:08.032Z,9.45
2018-03-08T10:38:36.784Z,4.80
2018-03-08T10:41:04.570Z,4.85
2018-03-08T10:43:31.953Z,5.07
2018-03-08T10:45:59.350Z,5.75
2018-03-08T10:48:26.816Z,5.70
2018-03-08T10:50:54.281Z,4.30
2018-03-08T10:53:22.269Z,4.97
2018-03-08T11:04:29.124Z,4.95
2018-03-08T11:06:56.526Z,5.30
2018-03-08T11:09:25.212Z,5.27
2018-03-08T11:11:52.617Z,6.10
2018-03-08T11:14:20.024Z,4.90
2018-03-08T11:16:47.419Z,4.70
2018-03-08T11:19:16.795Z,5.60
2018-03-08T11:21:44.328Z,4.00
2018-03-08T11:24:11.743Z,5.73
2018-03-08T11:26:39.301Z,5.03
2018-03-08T11:29:06.789Z,5.53
2018-03-08T11:31:34.176Z,4.07
2018-03-08T11:34:01.570Z,7.97
2018-03-08T11:36:29.096Z,6.40
2018-03-08T11:38:56.489Z,5.57
2018-03-08T11:41:23.880Z,4.93
2018-03-08T11:43:51.434Z,4.18
2018-03-08T11:46:18.822Z,6.63
2018-03-08T11:48:46.270Z,6.23
2018-03-08T11:51:13.702Z,6.10
2018-03-08T11:53:41.116Z,2.70
2018-03-08T11:56:08.632Z,4.17
2018-03-08T11:58:36.156Z,5.72
2018-03-08T12:01:03.650Z,2.97
2018-03-08T12:03:31.221Z,6.47
2018-03-08T12:05:58.632Z,5.22
2018-03-08T12:08:27.647Z,3.50
2018-03-08T12:10:55.033Z,3.90
2018-03-08T12:13:22.840Z,4.55
2018-03-08T12:15:50.442Z,4.40
2018-03-08T12:18:18.913Z,4.70
2018-03-08T12:20:46.331Z,4.00
2018-03-08T12:23:13.757Z,5.57
2018-03-08T12:25:41.227Z,1.87
2018-03-08T12:28:08.649Z,5.05
2018-03-08T12:30:36.002Z,3.70
2018-03-08T12:33:03.402Z,2.80
2018-03-08T12:35:33.472Z,2.83
2018-03-08T12:38:00.828Z,2.50
2018-03-08T12:40:28.289Z,3.85
2018-03-08T12:43:13.100Z,4.40
2018-03-08T12:45:42.109Z,3.53
2018-03-08T12:48:09.547Z,6.60
2018-03-08T12:50:37.139Z,3.00
2018-03-08T12:53:04.614Z,2.70
2018-03-08T12:55:32.009Z,3.07
2018-03-08T12:57:59.406Z,4.60
2018-03-08T13:00:26.875Z,3.30
2018-03-08T13:02:54.440Z,3.53
2018-03-08T13:05:22.915Z,4.40
2018-03-08T13:07:50.319Z,4.80
2018-03-08T13:10:17.820Z,3.50
2018-03-08T13:12:45.302Z,2.30
2018-03-08T13:15:13.034Z,1.53
2018-03-08T13:17:40.456Z,1.60
2018-03-08T13:20:07.873Z,1.90
2018-03-08T13:22:35.256Z,2.00
2018-03-08T13:25:02.868Z,3.70
2018-03-08T13:27:30.314Z,7.20
2018-03-08T13:29:57.821Z,4.83
2018-03-08T13:32:25.361Z,2.10
2018-03-08T13:34:54.067Z,2.75
2018-03-08T13:37:21.577Z,1.53
2018-03-08T13:39:49.029Z,2.70
2018-03-08T13:42:16.405Z,4.73
2018-03-08T13:44:43.956Z,3.57
2018-03-08T13:47:11.343Z,2.47
2018-03-08T13:49:38.729Z,7.00
2018-03-08T13:52:06.142Z,3.30
2018-03-08T13:54:33.551Z,5.43
2018-03-08T13:57:00.949Z,2.90
2018-03-08T13:59:28.328Z,4.40
2018-03-08T14:01:55.916Z,11.53
2018-03-08T14:04:23.323Z,3.20
2018-03-08T14:06:50.698Z,5.43
2018-03-08T14:09:18.078Z,4.10
2018-03-08T14:11:45.469Z,5.82
2018-03-08T14:14:12.847Z,2.57
2018-03-08T14:16:40.263Z,4.30
2018-03-08T14:19:07.719Z,3.58
2018-03-08T14:21:35.173Z,1.80
2018-03-08T14:24:02.577Z,4.00
2018-03-08T14:26:29.974Z,4.85
2018-03-08T14:28:57.476Z,3.13
2018-03-08T14:31:24.901Z,2.77
2018-03-08T14:33:53.169Z,2.30
2018-03-08T14:36:20.585Z,6.43
2018-03-08T14:38:47.977Z,4.00
2018-03-08T14:41:15.376Z,3.90
2018-03-08T14:43:42.801Z,6.07
2018-03-08T14:46:10.269Z,4.10
2018-03-08T14:48:37.764Z,6.07
2018-03-08T14:51:05.294Z,3.80
2018-03-08T14:53:32.896Z,2.90
2018-03-08T14:56:08.801Z,4.35
2018-03-08T14:58:42.286Z,3.87
2018-03-08T15:01:09.934Z,3.03
2018-03-08T15:03:37.425Z,4.90
2018-03-08T15:06:04.928Z,2.70
2018-03-08T15:08:32.333Z,2.95
2018-03-08T15:10:59.761Z,2.50
2018-03-08T15:13:27.162Z,5.03
2018-03-08T15:15:54.587Z,4.57
2018-03-08T15:18:21.985Z,3.67
2018-03-08T15:20:49.480Z,3.07
2018-03-08T15:23:16.869Z,5.37
2018-03-08T15:25:44.360Z,6.65
2018-03-08T15:28:11.751Z,2.70
2018-03-08T15:30:39.209Z,2.53
2018-03-08T15:33:06.867Z,3.63
2018-03-08T15:35:34.371Z,3.70
2018-03-08T15:38:01.809Z,2.75
2018-03-08T15:40:29.218Z,3.47
2018-03-08T15:42:56.621Z,3.13
2018-03-08T15:45:24.050Z,2.50
2018-03-08T15:47:51.418Z,2.80
2018-03-08T15:50:19.423Z,2.37
2018-03-08T15:52:46.888Z,3.07
2018-03-08T15:55:14.606Z,4.30
2018-03-08T15:57:41.980Z,4.30
2018-03-08T16:00:09.415Z,4.95
2018-03-08T16:02:36.788Z,4.70
2018-03-08T16:05:04.174Z,1.87
2018-03-08T16:21:14.129Z,4.33
2018-03-08T16:23:41.582Z,4.90
2018-03-08T16:26:08.949Z,3.20
2018-03-08T16:28:36.343Z,4.23
2018-03-08T16:31:03.737Z,2.87
2018-03-08T16:33:31.166Z,2.40
2018-03-08T16:35:58.592Z,5.57
2018-03-08T16:38:25.970Z,2.10
2018-03-08T16:40:53.658Z,3.95
2018-03-08T16:43:21.039Z,1.70
2018-03-08T16:45:48.445Z,2.13
2018-03-08T16:48:16.232Z,2.70
2018-03-08T16:50:43.624Z,2.60
2018-03-08T16:53:11.029Z,4.67
2018-03-08T16:55:38.415Z,2.50
2018-03-08T16:58:05.798Z,6.22
2018-03-08T17:00:33.193Z,2.70
2018-03-08T17:03:00.713Z,2.30
2018-03-08T17:05:28.418Z,2.37
2018-03-08T17:07:55.906Z,2.63
2018-03-08T17:10:23.305Z,3.13
2018-03-08T17:12:50.698Z,2.90
2018-03-08T17:15:18.182Z,3.90
2018-03-08T17:17:45.629Z,6.53
2018-03-08T17:20:13.135Z,1.70
2018-03-08T17:22:40.778Z,1.67
2018-03-08T17:25:08.232Z,2.70
2018-03-08T17:27:35.690Z,4.07
2018-03-08T17:30:03.146Z,3.70
2018-03-08T17:32:30.664Z,2.92
2018-03-08T17:34:58.046Z,3.27
2018-03-08T17:37:25.999Z,5.03
2018-03-08T17:39:53.988Z,4.60
2018-03-08T17:42:21.497Z,5.23
2018-03-08T17:44:48.892Z,3.00
2018-03-08T17:47:16.368Z,4.43
2018-03-08T17:49:43.801Z,3.40
2018-03-08T17:52:11.214Z,2.93
2018-03-08T17:54:38.619Z,4.43
2018-03-08T17:57:05.992Z,4.93
2018-03-08T17:59:33.545Z,6.15
2018-03-08T18:02:00.937Z,3.40
2018-03-08T18:04:28.346Z,3.05
2018-03-08T18:06:55.833Z,3.00
2018-03-08T18:09:28.250Z,5.55
2018-03-08T18:11:55.961Z,2.43
2018-03-08T18:14:24.058Z,2.17
2018-03-08T18:16:51.437Z,1.63
2018-03-08T18:19:18.826Z,2.97
2018-03-08T18:21:46.215Z,1.80
2018-03-08T18:24:13.702Z,4.80
2018-03-08T18:26:41.086Z,3.23
2018-03-08T18:29:08.517Z,4.53
2018-03-08T18:31:35.906Z,10.27
2018-03-08T18:34:03.307Z,1.40
2018-03-08T18:36:30.700Z,4.30
2018-03-08T18:39:05.721Z,2.07
2018-03-08T18:41:38.795Z,2.37
2018-03-08T18:44:06.579Z,2.55
2018-03-08T18:46:33.955Z,3.10
2018-03-08T18:49:01.332Z,3.33
2018-03-08T18:51:28.906Z,3.10
2018-03-08T18:53:58.175Z,3.90
2018-03-08T18:56:25.540Z,2.00
2018-03-08T18:58:52.925Z,1.43
2018-03-08T19:01:20.315Z,1.80
2018-03-08T19:03:47.680Z,3.20
2018-03-08T19:06:15.093Z,1.40
2018-03-08T19:08:43.731Z,1.00
2018-03-08T19:11:11.255Z,1.10
2018-03-08T19:13:39.133Z,4.03
2018-03-08T19:16:06.536Z,1.12
2018-03-08T19:18:33.938Z,2.30
2018-03-08T19:21:01.328Z,1.47
2018-03-08T19:23:28.749Z,2.30
2018-03-08T19:25:57.124Z,1.90
2018-03-08T19:28:24.708Z,1.40
2018-03-08T19:30:52.401Z,1.50
2018-03-08T19:33:19.799Z,1.63
2018-03-08T19:35:47.173Z,1.20
2018-03-08T19:38:14.668Z,1.27
2018-03-08T19:40:42.069Z,1.30
2018-03-08T19:43:09.502Z,2.50
2018-03-08T19:45:37.142Z,1.90
2018-03-08T19:48:04.730Z,3.90
2018-03-08T19:50:32.099Z,2.30
2018-03-08T19:52:59.489Z,4.32
2018-03-08T19:55:26.902Z,2.23
2018-03-08T19:57:54.639Z,6.10
2018-03-08T20:00:22.165Z,4.60
2018-03-08T20:02:49.654Z,2.43
2018-03-08T20:05:22.869Z,1.43
2018-03-08T20:07:50.257Z,2.20
2018-03-08T20:10:18.014Z,2.93
2018-03-08T20:12:45.413Z,2.03
2018-03-08T20:15:12.793Z,2.17
2018-03-08T20:17:40.275Z,2.22
2018-03-08T20:20:07.641Z,2.23
2018-03-08T20:22:35.078Z,2.33
2018-03-08T20:25:02.466Z,3.17
2018-03-08T20:27:29.868Z,2.05
2018-03-08T20:29:57.275Z,1.90
2018-03-08T20:32:27.226Z,1.20
2018-03-08T20:34:55.605Z,1.27
2018-03-08T20:37:23.056Z,2.10
2018-03-08T20:39:50.434Z,1.50
2018-03-08T20:42:17.997Z,2.13
2018-03-08T20:44:45.696Z,1.40
2018-03-08T20:47:13.176Z,2.83
2018-03-08T20:49:40.565Z,1.60
2018-03-08T20:52:08.649Z,1.48
2018-03-08T20:54:36.209Z,1.23
2018-03-08T20:57:03.650Z,1.80
2018-03-08T20:59:31.096Z,3.00
2018-03-08T21:01:58.606Z,3.00
2018-03-08T21:04:25.989Z,2.10
2018-03-08T21:06:53.369Z,2.37
2018-03-08T21:09:20.754Z,4.83
2018-03-08T21:11:48.133Z,2.20
2018-03-08T21:14:15.568Z,1.00
2018-03-08T21:16:43.101Z,1.65
2018-03-08T21:19:10.497Z,1.20
2018-03-08T21:21:37.917Z,2.25
2018-03-08T21:24:05.285Z,1.17
2018-03-08T21:26:32.748Z,1.23
2018-03-08T21:29:00.148Z,1.67
2018-03-08T21:31:27.692Z,1.77
2018-03-08T21:33:55.918Z,1.83
2018-03-08T21:36:23.300Z,1.70
2018-03-08T21:38:50.784Z,1.77
2018-03-08T21:41:18.249Z,2.20
2018-03-08T21:43:45.724Z,2.97
2018-03-08T21:46:13.204Z,1.10
2018-03-08T21:48:40.583Z,3.53
2018-03-08T21:51:07.961Z,1.33
2018-03-08T21:53:35.474Z,1.37
2018-03-08T21:56:02.942Z,2.90
2018-03-08T21:58:30.354Z,6.74
2018-03-08T22:00:57.743Z,10.23
2018-03-08T22:03:26.158Z,3.92
2018-03-08T22:05:56.088Z,4.27
2018-03-08T22:08:23.504Z,2.10
2018-03-08T22:10:50.944Z,1.70
2018-03-08T22:13:18.346Z,2.67
2018-03-08T22:15:45.735Z,12.17
2018-03-08T22:18:13.188Z,1.95
2018-03-08T22:20:40.513Z,2.27
2018-03-08T22:23:07.930Z,1.97
2018-03-08T22:25:36.358Z,2.50
2018-03-08T22:28:03.743Z,1.53
2018-03-08T22:30:31.290Z,5.50
2018-03-08T22:32:58.710Z,15.03
2018-03-08T22:35:26.110Z,2.70
2018-03-08T22:37:53.521Z,3.63
2018-03-08T22:42:53.585Z,4.50
2018-03-08T22:45:21.020Z,10.77
2018-03-08T22:47:48.427Z,11.80
2018-03-08T22:50:15.818Z,2.08
2018-03-08T22:52:43.217Z,5.70
2018-03-08T22:55:10.609Z,2.70
2018-03-08T22:57:38.092Z,1.70
2018-03-08T23:00:05.579Z,3.13
2018-03-08T23:02:36.063Z,8.30
2018-03-08T23:05:03.433Z,9.30
2018-03-08T23:07:30.858Z,4.57
2018-03-08T23:09:58.236Z,3.08
2018-03-08T23:12:25.630Z,3.40
2018-03-08T23:14:53.025Z,5.00
2018-03-08T23:17:20.527Z,3.65
2018-03-08T23:19:47.947Z,2.10
2018-03-08T23:22:15.401Z,6.30
2018-03-08T23:24:43.013Z,4.50
2018-03-08T23:27:10.513Z,2.40
2018-03-08T23:29:37.888Z,2.27
2018-03-08T23:32:05.329Z,2.80
2018-03-08T23:34:32.700Z,3.90
2018-03-08T23:37:00.447Z,3.20
2018-03-08T23:39:27.921Z,2.60
2018-03-08T23:41:55.637Z,2.53
2018-03-08T23:44:23.438Z,3.10
2018-03-08T23:46:51.064Z,1.90
2018-03-08T23:49:18.603Z,2.60
2018-03-08T23:51:46.008Z,2.33
2018-03-08T23:54:13.389Z,2.53
2018-03-08T23:56:41.031Z,1.98
2018-03-08T23:59:08.625Z,3.53
